sensor_id;sensor_type;location;lat;lon;timestamp;temperature;humidity
26270;DHT22;15937;50.612;6.656;2022-12-07T00:01:09;4.00;99.90
26270;DHT22;15937;50.612;6.656;2022-12-07T00:05:11;4.00;99.90
26270;DHT22;15937;50.612;6.656;2022-12-07T00:09:14;4.00;99.90
26270;DHT22;15937;50.612;6.656;2022-12-07T00:13:16;4.00;99.90
26270;DHT22;15937;50.612;6.656;2022-12-07T00:17:17;3.90;99.90
26270;DHT22;15937;50.612;6.656;2022-12-07T00:21:20;3.90;99.90
26270;DHT22;15937;50.612;6.656;2022-12-07T00:25:22;3.90;99.90
26270;DHT22;15937;50.612;6.656;2022-12-07T00:29:23;3.90;99.90
26270;DHT22;15937;50.612;6.656;2022-12-07T00:33:25;3.90;99.90
26270;DHT22;15937;50.612;6.656;2022-12-07T00:37:26;3.90;99.90
26270;DHT22;15937;50.612;6.656;2022-12-07T00:41:28;3.90;99.90
26270;DHT22;15937;50.612;6.656;2022-12-07T00:45:30;3.90;99.90
26270;DHT22;15937;50.612;6.656;2022-12-07T00:49:32;3.90;99.90
26270;DHT22;15937;50.612;6.656;2022-12-07T00:53:34;4.00;99.90
26270;DHT22;15937;50.612;6.656;2022-12-07T00:57:42;4.00;99.90
26270;DHT22;15937;50.612;6.656;2022-12-07T01:01:43;3.90;99.90
26270;DHT22;15937;50.612;6.656;2022-12-07T01:05:49;3.90;99.90
26270;DHT22;15937;50.612;6.656;2022-12-07T01:09:51;3.90;99.90
26270;DHT22;15937;50.612;6.656;2022-12-07T01:13:53;3.90;99.90
26270;DHT22;15937;50.612;6.656;2022-12-07T01:17:55;3.90;99.90
26270;DHT22;15937;50.612;6.656;2022-12-07T01:21:57;3.90;99.90
26270;DHT22;15937;50.612;6.656;2022-12-07T01:25:59;3.90;99.90
26270;DHT22;15937;50.612;6.656;2022-12-07T01:30:02;3.90;99.90
26270;DHT22;15937;50.612;6.656;2022-12-07T01:34:05;3.90;99.90
26270;DHT22;15937;50.612;6.656;2022-12-07T01:38:06;3.90;99.90
26270;DHT22;15937;50.612;6.656;2022-12-07T01:42:11;3.90;99.90
26270;DHT22;15937;50.612;6.656;2022-12-07T01:46:13;4.00;99.90
26270;DHT22;15937;50.612;6.656;2022-12-07T01:50:15;4.00;99.90
26270;DHT22;15937;50.612;6.656;2022-12-07T01:54:16;4.00;99.90
26270;DHT22;15937;50.612;6.656;2022-12-07T01:58:19;3.90;99.90
26270;DHT22;15937;50.612;6.656;2022-12-07T02:02:29;4.00;99.90
26270;DHT22;15937;50.612;6.656;2022-12-07T02:06:33;3.90;99.90
26270;DHT22;15937;50.612;6.656;2022-12-07T02:10:36;4.00;99.90
26270;DHT22;15937;50.612;6.656;2022-12-07T02:14:37;4.00;99.90
26270;DHT22;15937;50.612;6.656;2022-12-07T02:31:23;4.00;99.90
26270;DHT22;15937;50.612;6.656;2022-12-07T02:39:42;4.10;99.90
26270;DHT22;15937;50.612;6.656;2022-12-07T02:43:50;4.10;99.90
26270;DHT22;15937;50.612;6.656;2022-12-07T02:47:53;4.00;99.90
26270;DHT22;15937;50.612;6.656;2022-12-07T02:51:57;4.10;99.90
26270;DHT22;15937;50.612;6.656;2022-12-07T03:00:27;4.10;99.90
26270;DHT22;15937;50.612;6.656;2022-12-07T03:08:44;4.10;99.90
26270;DHT22;15937;50.612;6.656;2022-12-07T03:13:03;4.10;99.90
26270;DHT22;15937;50.612;6.656;2022-12-07T03:17:08;4.20;99.90
26270;DHT22;15937;50.612;6.656;2022-12-07T03:21:14;4.10;99.90
26270;DHT22;15937;50.612;6.656;2022-12-07T03:25:16;4.10;99.90
26270;DHT22;15937;50.612;6.656;2022-12-07T03:29:41;4.10;99.90
26270;DHT22;15937;50.612;6.656;2022-12-07T03:33:42;4.10;99.90
26270;DHT22;15937;50.612;6.656;2022-12-07T03:37:47;4.10;99.90
26270;DHT22;15937;50.612;6.656;2022-12-07T03:41:50;4.10;99.90
26270;DHT22;15937;50.612;6.656;2022-12-07T03:50:08;4.10;99.90
26270;DHT22;15937;50.612;6.656;2022-12-07T03:54:18;4.10;99.90
26270;DHT22;15937;50.612;6.656;2022-12-07T03:58:20;4.10;99.90
26270;DHT22;15937;50.612;6.656;2022-12-07T04:02:23;4.10;99.90
26270;DHT22;15937;50.612;6.656;2022-12-07T04:06:25;4.10;99.90
26270;DHT22;15937;50.612;6.656;2022-12-07T04:10:26;4.10;99.90
26270;DHT22;15937;50.612;6.656;2022-12-07T04:14:28;4.00;99.90
26270;DHT22;15937;50.612;6.656;2022-12-07T04:18:30;4.10;99.90
26270;DHT22;15937;50.612;6.656;2022-12-07T04:22:31;4.00;99.90
26270;DHT22;15937;50.612;6.656;2022-12-07T04:26:33;4.00;99.90
26270;DHT22;15937;50.612;6.656;2022-12-07T04:30:34;4.00;99.90
26270;DHT22;15937;50.612;6.656;2022-12-07T04:34:36;4.10;99.90
26270;DHT22;15937;50.612;6.656;2022-12-07T04:38:38;4.00;99.90
26270;DHT22;15937;50.612;6.656;2022-12-07T04:42:39;4.00;99.90
26270;DHT22;15937;50.612;6.656;2022-12-07T04:46:41;4.00;99.90
26270;DHT22;15937;50.612;6.656;2022-12-07T04:50:43;4.00;99.90
26270;DHT22;15937;50.612;6.656;2022-12-07T04:54:46;4.00;99.90
26270;DHT22;15937;50.612;6.656;2022-12-07T04:58:48;4.00;99.90
26270;DHT22;15937;50.612;6.656;2022-12-07T05:02:50;3.90;99.90
26270;DHT22;15937;50.612;6.656;2022-12-07T05:06:52;3.90;99.90
26270;DHT22;15937;50.612;6.656;2022-12-07T05:10:53;3.90;99.90
26270;DHT22;15937;50.612;6.656;2022-12-07T05:14:55;3.90;99.90
26270;DHT22;15937;50.612;6.656;2022-12-07T05:18:57;4.00;99.90
26270;DHT22;15937;50.612;6.656;2022-12-07T05:22:58;3.90;99.90
26270;DHT22;15937;50.612;6.656;2022-12-07T05:27:00;3.90;99.90
26270;DHT22;15937;50.612;6.656;2022-12-07T05:31:02;3.90;99.90
26270;DHT22;15937;50.612;6.656;2022-12-07T05:35:04;3.90;99.90
26270;DHT22;15937;50.612;6.656;2022-12-07T05:39:06;3.80;99.90
26270;DHT22;15937;50.612;6.656;2022-12-07T05:43:08;3.80;99.90
26270;DHT22;15937;50.612;6.656;2022-12-07T05:47:10;3.80;99.90
26270;DHT22;15937;50.612;6.656;2022-12-07T05:51:12;3.70;99.90
26270;DHT22;15937;50.612;6.656;2022-12-07T05:55:14;3.70;99.90
26270;DHT22;15937;50.612;6.656;2022-12-07T05:59:15;3.70;99.90
26270;DHT22;15937;50.612;6.656;2022-12-07T06:03:28;3.60;99.90
26270;DHT22;15937;50.612;6.656;2022-12-07T06:07:30;3.60;99.90
26270;DHT22;15937;50.612;6.656;2022-12-07T06:11:32;3.70;99.90
26270;DHT22;15937;50.612;6.656;2022-12-07T06:15:52;3.70;99.90
26270;DHT22;15937;50.612;6.656;2022-12-07T06:19:54;3.60;99.90
26270;DHT22;15937;50.612;6.656;2022-12-07T06:23:55;3.70;99.90
26270;DHT22;15937;50.612;6.656;2022-12-07T06:27:57;3.70;99.90
26270;DHT22;15937;50.612;6.656;2022-12-07T06:31:59;3.70;99.90
26270;DHT22;15937;50.612;6.656;2022-12-07T06:36:01;3.70;99.90
26270;DHT22;15937;50.612;6.656;2022-12-07T06:40:02;3.70;99.90
26270;DHT22;15937;50.612;6.656;2022-12-07T06:44:05;3.80;99.90
26270;DHT22;15937;50.612;6.656;2022-12-07T06:48:07;3.70;99.90
26270;DHT22;15937;50.612;6.656;2022-12-07T06:52:08;3.70;99.90
26270;DHT22;15937;50.612;6.656;2022-12-07T06:56:10;3.80;99.90
26270;DHT22;15937;50.612;6.656;2022-12-07T07:00:12;3.80;99.90
26270;DHT22;15937;50.612;6.656;2022-12-07T07:04:22;3.90;99.90
26270;DHT22;15937;50.612;6.656;2022-12-07T07:08:24;3.80;99.90
26270;DHT22;15937;50.612;6.656;2022-12-07T07:12:26;3.80;99.90
26270;DHT22;15937;50.612;6.656;2022-12-07T07:16:28;3.80;99.90
26270;DHT22;15937;50.612;6.656;2022-12-07T07:20:30;3.90;99.90
26270;DHT22;15937;50.612;6.656;2022-12-07T07:24:32;3.90;99.90
26270;DHT22;15937;50.612;6.656;2022-12-07T07:28:34;3.90;99.90
26270;DHT22;15937;50.612;6.656;2022-12-07T07:32:35;3.90;99.90
26270;DHT22;15937;50.612;6.656;2022-12-07T07:36:37;4.00;99.90
26270;DHT22;15937;50.612;6.656;2022-12-07T07:40:39;3.90;99.90
26270;DHT22;15937;50.612;6.656;2022-12-07T07:44:41;3.90;99.90
26270;DHT22;15937;50.612;6.656;2022-12-07T07:48:42;3.90;99.90
26270;DHT22;15937;50.612;6.656;2022-12-07T07:52:44;3.90;99.90
26270;DHT22;15937;50.612;6.656;2022-12-07T07:56:46;3.90;99.90
26270;DHT22;15937;50.612;6.656;2022-12-07T08:00:47;3.90;99.90
26270;DHT22;15937;50.612;6.656;2022-12-07T08:04:49;3.80;99.90
26270;DHT22;15937;50.612;6.656;2022-12-07T08:08:51;3.90;99.90
26270;DHT22;15937;50.612;6.656;2022-12-07T08:12:53;3.90;99.90
26270;DHT22;15937;50.612;6.656;2022-12-07T08:17:14;4.00;99.90
26270;DHT22;15937;50.612;6.656;2022-12-07T08:21:16;4.10;99.90
26270;DHT22;15937;50.612;6.656;2022-12-07T08:25:17;4.00;99.90
26270;DHT22;15937;50.612;6.656;2022-12-07T08:29:19;4.10;99.90
26270;DHT22;15937;50.612;6.656;2022-12-07T08:33:22;4.10;99.90
26270;DHT22;15937;50.612;6.656;2022-12-07T08:37:24;4.10;99.90
26270;DHT22;15937;50.612;6.656;2022-12-07T08:41:25;4.10;99.90
26270;DHT22;15937;50.612;6.656;2022-12-07T08:45:27;4.20;99.90
26270;DHT22;15937;50.612;6.656;2022-12-07T08:49:47;4.20;99.90
26270;DHT22;15937;50.612;6.656;2022-12-07T08:53:50;4.20;99.90
26270;DHT22;15937;50.612;6.656;2022-12-07T08:57:53;4.30;99.90
26270;DHT22;15937;50.612;6.656;2022-12-07T09:01:55;4.40;99.90
26270;DHT22;15937;50.612;6.656;2022-12-07T09:05:57;4.40;99.90
26270;DHT22;15937;50.612;6.656;2022-12-07T09:09:59;4.30;99.90
26270;DHT22;15937;50.612;6.656;2022-12-07T09:14:01;4.40;99.90
26270;DHT22;15937;50.612;6.656;2022-12-07T09:18:03;4.40;99.90
26270;DHT22;15937;50.612;6.656;2022-12-07T09:22:04;4.50;99.90
26270;DHT22;15937;50.612;6.656;2022-12-07T09:26:06;4.60;99.90
26270;DHT22;15937;50.612;6.656;2022-12-07T09:30:11;4.70;99.90
26270;DHT22;15937;50.612;6.656;2022-12-07T09:34:13;4.70;99.90
26270;DHT22;15937;50.612;6.656;2022-12-07T09:38:15;4.70;99.90
26270;DHT22;15937;50.612;6.656;2022-12-07T09:42:28;4.70;99.90
26270;DHT22;15937;50.612;6.656;2022-12-07T09:46:30;4.70;99.90
26270;DHT22;15937;50.612;6.656;2022-12-07T09:50:36;4.70;99.90
26270;DHT22;15937;50.612;6.656;2022-12-07T09:54:39;4.80;99.90
26270;DHT22;15937;50.612;6.656;2022-12-07T09:58:42;4.80;99.90
26270;DHT22;15937;50.612;6.656;2022-12-07T10:02:46;4.80;99.90
26270;DHT22;15937;50.612;6.656;2022-12-07T10:06:48;4.70;99.90
26270;DHT22;15937;50.612;6.656;2022-12-07T10:10:53;4.80;99.90
26270;DHT22;15937;50.612;6.656;2022-12-07T10:15:00;5.00;99.90
26270;DHT22;15937;50.612;6.656;2022-12-07T10:19:20;5.20;99.90
26270;DHT22;15937;50.612;6.656;2022-12-07T10:23:23;5.00;99.90
26270;DHT22;15937;50.612;6.656;2022-12-07T10:27:31;5.10;99.90
26270;DHT22;15937;50.612;6.656;2022-12-07T10:31:41;5.20;99.90
26270;DHT22;15937;50.612;6.656;2022-12-07T10:35:45;5.30;99.90
26270;DHT22;15937;50.612;6.656;2022-12-07T10:39:47;5.30;99.90
26270;DHT22;15937;50.612;6.656;2022-12-07T10:43:50;5.50;99.90
26270;DHT22;15937;50.612;6.656;2022-12-07T10:52:09;5.40;99.90
26270;DHT22;15937;50.612;6.656;2022-12-07T11:00:53;5.30;99.90
26270;DHT22;15937;50.612;6.656;2022-12-07T11:17:56;5.40;99.90
26270;DHT22;15937;50.612;6.656;2022-12-07T11:30:28;5.60;99.90
26270;DHT22;15937;50.612;6.656;2022-12-07T11:34:42;5.70;99.90
26270;DHT22;15937;50.612;6.656;2022-12-07T11:38:53;5.70;99.90
26270;DHT22;15937;50.612;6.656;2022-12-07T11:42:58;5.60;99.90
26270;DHT22;15937;50.612;6.656;2022-12-07T11:51:21;5.70;99.90
26270;DHT22;15937;50.612;6.656;2022-12-07T11:59:33;5.70;99.90
26270;DHT22;15937;50.612;6.656;2022-12-07T12:03:38;5.90;99.90
26270;DHT22;15937;50.612;6.656;2022-12-07T12:07:42;5.80;99.90
26270;DHT22;15937;50.612;6.656;2022-12-07T12:16:48;5.50;99.90
26270;DHT22;15937;50.612;6.656;2022-12-07T12:20:57;5.50;99.90
26270;DHT22;15937;50.612;6.656;2022-12-07T12:24:59;5.60;99.90
26270;DHT22;15937;50.612;6.656;2022-12-07T12:29:05;5.30;99.90
26270;DHT22;15937;50.612;6.656;2022-12-07T12:33:14;5.40;99.90
26270;DHT22;15937;50.612;6.656;2022-12-07T12:45:39;5.60;99.90
26270;DHT22;15937;50.612;6.656;2022-12-07T12:49:41;5.60;99.90
26270;DHT22;15937;50.612;6.656;2022-12-07T12:53:50;5.50;99.90
26270;DHT22;15937;50.612;6.656;2022-12-07T13:10:30;5.50;99.90
26270;DHT22;15937;50.612;6.656;2022-12-07T13:18:42;5.70;99.90
26270;DHT22;15937;50.612;6.656;2022-12-07T13:22:43;5.50;99.90
26270;DHT22;15937;50.612;6.656;2022-12-07T13:26:48;5.70;99.90
26270;DHT22;15937;50.612;6.656;2022-12-07T13:31:00;5.70;99.90
26270;DHT22;15937;50.612;6.656;2022-12-07T13:35:26;5.60;99.90
26270;DHT22;15937;50.612;6.656;2022-12-07T13:39:27;5.50;99.90
26270;DHT22;15937;50.612;6.656;2022-12-07T13:43:29;5.50;99.90
26270;DHT22;15937;50.612;6.656;2022-12-07T13:47:32;5.50;99.90
26270;DHT22;15937;50.612;6.656;2022-12-07T13:51:36;5.60;99.90
26270;DHT22;15937;50.612;6.656;2022-12-07T13:55:43;5.50;99.90
26270;DHT22;15937;50.612;6.656;2022-12-07T13:59:51;5.50;99.90
26270;DHT22;15937;50.612;6.656;2022-12-07T14:03:53;5.30;99.90
26270;DHT22;15937;50.612;6.656;2022-12-07T14:12:11;5.40;99.90
26270;DHT22;15937;50.612;6.656;2022-12-07T14:20:36;5.40;99.90
26270;DHT22;15937;50.612;6.656;2022-12-07T14:24:42;5.40;99.90
26270;DHT22;15937;50.612;6.656;2022-12-07T14:28:44;5.40;99.90
26270;DHT22;15937;50.612;6.656;2022-12-07T14:32:46;5.40;99.90
26270;DHT22;15937;50.612;6.656;2022-12-07T14:36:50;5.30;99.90
26270;DHT22;15937;50.612;6.656;2022-12-07T14:40:52;5.30;99.90
26270;DHT22;15937;50.612;6.656;2022-12-07T14:44:54;5.20;99.90
26270;DHT22;15937;50.612;6.656;2022-12-07T14:48:56;5.20;99.90
26270;DHT22;15937;50.612;6.656;2022-12-07T14:53:18;5.20;99.90
26270;DHT22;15937;50.612;6.656;2022-12-07T14:57:22;5.20;99.90
26270;DHT22;15937;50.612;6.656;2022-12-07T15:01:24;5.00;99.90
26270;DHT22;15937;50.612;6.656;2022-12-07T15:05:26;5.00;99.90
26270;DHT22;15937;50.612;6.656;2022-12-07T15:09:28;5.00;99.90
26270;DHT22;15937;50.612;6.656;2022-12-07T15:13:29;5.00;99.90
26270;DHT22;15937;50.612;6.656;2022-12-07T15:17:50;5.00;99.90
26270;DHT22;15937;50.612;6.656;2022-12-07T15:21:52;4.90;99.90
26270;DHT22;15937;50.612;6.656;2022-12-07T15:25:53;4.80;99.90
26270;DHT22;15937;50.612;6.656;2022-12-07T15:29:55;4.80;99.90
26270;DHT22;15937;50.612;6.656;2022-12-07T15:33:57;4.70;99.90
26270;DHT22;15937;50.612;6.656;2022-12-07T15:37:58;4.70;99.90
26270;DHT22;15937;50.612;6.656;2022-12-07T15:42:00;4.70;99.90
26270;DHT22;15937;50.612;6.656;2022-12-07T15:46:02;4.60;99.90
26270;DHT22;15937;50.612;6.656;2022-12-07T15:50:04;4.50;99.90
26270;DHT22;15937;50.612;6.656;2022-12-07T15:54:06;4.50;99.90
26270;DHT22;15937;50.612;6.656;2022-12-07T15:58:08;4.60;99.90
26270;DHT22;15937;50.612;6.656;2022-12-07T16:02:21;4.60;99.90
26270;DHT22;15937;50.612;6.656;2022-12-07T16:06:33;4.60;99.90
26270;DHT22;15937;50.612;6.656;2022-12-07T16:10:58;4.50;99.90
26270;DHT22;15937;50.612;6.656;2022-12-07T16:15:00;4.50;99.90
26270;DHT22;15937;50.612;6.656;2022-12-07T16:19:03;4.50;99.90
26270;DHT22;15937;50.612;6.656;2022-12-07T16:23:05;4.40;99.90
26270;DHT22;15937;50.612;6.656;2022-12-07T16:27:07;4.40;99.90
26270;DHT22;15937;50.612;6.656;2022-12-07T16:31:13;4.40;99.90
26270;DHT22;15937;50.612;6.656;2022-12-07T16:35:15;4.20;99.90
26270;DHT22;15937;50.612;6.656;2022-12-07T16:39:16;4.20;99.90
26270;DHT22;15937;50.612;6.656;2022-12-07T16:43:19;4.10;99.90
26270;DHT22;15937;50.612;6.656;2022-12-07T16:47:21;4.10;99.90
26270;DHT22;15937;50.612;6.656;2022-12-07T16:51:22;4.10;99.90
26270;DHT22;15937;50.612;6.656;2022-12-07T16:55:24;4.20;99.90
26270;DHT22;15937;50.612;6.656;2022-12-07T16:59:26;4.20;99.90
26270;DHT22;15937;50.612;6.656;2022-12-07T17:03:28;4.20;99.90
26270;DHT22;15937;50.612;6.656;2022-12-07T17:07:29;4.20;99.90
26270;DHT22;15937;50.612;6.656;2022-12-07T17:11:34;4.20;99.90
26270;DHT22;15937;50.612;6.656;2022-12-07T17:15:39;4.20;99.90
26270;DHT22;15937;50.612;6.656;2022-12-07T17:19:40;4.20;99.90
26270;DHT22;15937;50.612;6.656;2022-12-07T17:23:42;4.30;99.90
26270;DHT22;15937;50.612;6.656;2022-12-07T17:27:46;4.30;99.90
26270;DHT22;15937;50.612;6.656;2022-12-07T17:31:47;4.30;99.90
26270;DHT22;15937;50.612;6.656;2022-12-07T17:35:52;4.30;99.90
26270;DHT22;15937;50.612;6.656;2022-12-07T17:39:54;4.20;99.90
26270;DHT22;15937;50.612;6.656;2022-12-07T17:43:58;4.30;99.90
26270;DHT22;15937;50.612;6.656;2022-12-07T17:48:06;4.20;99.90
26270;DHT22;15937;50.612;6.656;2022-12-07T17:52:08;4.20;99.90
26270;DHT22;15937;50.612;6.656;2022-12-07T17:56:28;4.20;99.90
26270;DHT22;15937;50.612;6.656;2022-12-07T18:00:30;4.20;99.90
26270;DHT22;15937;50.612;6.656;2022-12-07T18:04:38;4.10;99.90
26270;DHT22;15937;50.612;6.656;2022-12-07T18:08:42;4.00;99.90
26270;DHT22;15937;50.612;6.656;2022-12-07T18:12:43;4.10;99.90
26270;DHT22;15937;50.612;6.656;2022-12-07T18:16:52;4.00;99.90
26270;DHT22;15937;50.612;6.656;2022-12-07T18:20:54;4.00;99.90
26270;DHT22;15937;50.612;6.656;2022-12-07T18:24:55;4.00;99.90
26270;DHT22;15937;50.612;6.656;2022-12-07T18:28:57;4.00;99.90
26270;DHT22;15937;50.612;6.656;2022-12-07T18:32:59;4.00;99.90
26270;DHT22;15937;50.612;6.656;2022-12-07T18:37:01;3.90;99.90
26270;DHT22;15937;50.612;6.656;2022-12-07T18:41:05;3.90;99.90
26270;DHT22;15937;50.612;6.656;2022-12-07T18:45:07;3.90;99.90
26270;DHT22;15937;50.612;6.656;2022-12-07T18:49:10;4.00;99.90
26270;DHT22;15937;50.612;6.656;2022-12-07T18:53:12;3.90;99.90
26270;DHT22;15937;50.612;6.656;2022-12-07T18:57:14;3.90;99.90
26270;DHT22;15937;50.612;6.656;2022-12-07T19:01:16;3.90;99.90
26270;DHT22;15937;50.612;6.656;2022-12-07T19:05:18;3.80;99.90
26270;DHT22;15937;50.612;6.656;2022-12-07T19:09:20;3.90;99.90
26270;DHT22;15937;50.612;6.656;2022-12-07T19:13:21;3.90;99.90
26270;DHT22;15937;50.612;6.656;2022-12-07T19:17:23;3.90;99.90
26270;DHT22;15937;50.612;6.656;2022-12-07T19:21:24;3.90;99.90
26270;DHT22;15937;50.612;6.656;2022-12-07T19:25:27;3.80;99.90
26270;DHT22;15937;50.612;6.656;2022-12-07T19:29:29;3.90;99.90
26270;DHT22;15937;50.612;6.656;2022-12-07T19:33:31;3.80;99.90
26270;DHT22;15937;50.612;6.656;2022-12-07T19:37:33;3.80;99.90
26270;DHT22;15937;50.612;6.656;2022-12-07T19:41:35;3.90;99.90
26270;DHT22;15937;50.612;6.656;2022-12-07T19:45:37;3.80;99.90
26270;DHT22;15937;50.612;6.656;2022-12-07T19:49:38;3.80;99.90
26270;DHT22;15937;50.612;6.656;2022-12-07T19:53:40;3.80;99.90
26270;DHT22;15937;50.612;6.656;2022-12-07T19:57:42;3.80;99.90
26270;DHT22;15937;50.612;6.656;2022-12-07T20:01:43;3.70;99.90
26270;DHT22;15937;50.612;6.656;2022-12-07T20:05:45;3.80;99.90
26270;DHT22;15937;50.612;6.656;2022-12-07T20:09:47;3.70;99.90
26270;DHT22;15937;50.612;6.656;2022-12-07T20:13:48;3.80;99.90
26270;DHT22;15937;50.612;6.656;2022-12-07T20:17:50;3.80;99.90
26270;DHT22;15937;50.612;6.656;2022-12-07T20:21:52;3.80;99.90
26270;DHT22;15937;50.612;6.656;2022-12-07T20:25:53;3.80;99.90
26270;DHT22;15937;50.612;6.656;2022-12-07T20:29:55;3.80;99.90
26270;DHT22;15937;50.612;6.656;2022-12-07T20:33:57;3.90;99.90
26270;DHT22;15937;50.612;6.656;2022-12-07T20:38:00;3.90;99.90
26270;DHT22;15937;50.612;6.656;2022-12-07T20:42:02;3.90;99.90
26270;DHT22;15937;50.612;6.656;2022-12-07T20:46:36;3.90;99.90
26270;DHT22;15937;50.612;6.656;2022-12-07T20:50:38;3.90;99.90
26270;DHT22;15937;50.612;6.656;2022-12-07T20:54:43;3.90;99.90
26270;DHT22;15937;50.612;6.656;2022-12-07T20:58:44;3.90;99.90
26270;DHT22;15937;50.612;6.656;2022-12-07T21:02:46;4.00;99.90
26270;DHT22;15937;50.612;6.656;2022-12-07T21:06:48;4.00;99.90
26270;DHT22;15937;50.612;6.656;2022-12-07T21:10:49;3.90;99.90
26270;DHT22;15937;50.612;6.656;2022-12-07T21:14:51;3.90;99.90
26270;DHT22;15937;50.612;6.656;2022-12-07T21:18:53;3.90;99.90
26270;DHT22;15937;50.612;6.656;2022-12-07T21:22:55;4.00;99.90
26270;DHT22;15937;50.612;6.656;2022-12-07T21:26:57;4.00;99.90
26270;DHT22;15937;50.612;6.656;2022-12-07T21:30:59;3.90;99.90
26270;DHT22;15937;50.612;6.656;2022-12-07T21:35:16;3.90;99.90
26270;DHT22;15937;50.612;6.656;2022-12-07T21:39:17;3.90;99.90
26270;DHT22;15937;50.612;6.656;2022-12-07T21:43:19;3.90;99.90
26270;DHT22;15937;50.612;6.656;2022-12-07T21:47:21;3.90;99.90
26270;DHT22;15937;50.612;6.656;2022-12-07T21:51:23;3.80;99.90
26270;DHT22;15937;50.612;6.656;2022-12-07T21:55:25;3.80;99.90
26270;DHT22;15937;50.612;6.656;2022-12-07T21:59:27;3.80;99.90
26270;DHT22;15937;50.612;6.656;2022-12-07T22:03:29;3.90;99.90
26270;DHT22;15937;50.612;6.656;2022-12-07T22:07:31;3.80;99.90
26270;DHT22;15937;50.612;6.656;2022-12-07T22:11:33;3.80;99.90
26270;DHT22;15937;50.612;6.656;2022-12-07T22:15:35;3.90;99.90
26270;DHT22;15937;50.612;6.656;2022-12-07T22:19:41;3.80;99.90
26270;DHT22;15937;50.612;6.656;2022-12-07T22:23:42;3.80;99.90
26270;DHT22;15937;50.612;6.656;2022-12-07T22:27:44;3.90;99.90
26270;DHT22;15937;50.612;6.656;2022-12-07T22:31:46;3.80;99.90
26270;DHT22;15937;50.612;6.656;2022-12-07T22:35:54;3.80;99.90
26270;DHT22;15937;50.612;6.656;2022-12-07T22:39:55;3.80;99.90
26270;DHT22;15937;50.612;6.656;2022-12-07T22:43:57;3.80;99.90
26270;DHT22;15937;50.612;6.656;2022-12-07T22:47:59;3.80;99.90
26270;DHT22;15937;50.612;6.656;2022-12-07T22:52:01;3.80;99.90
26270;DHT22;15937;50.612;6.656;2022-12-07T22:56:03;3.70;99.90
26270;DHT22;15937;50.612;6.656;2022-12-07T23:00:04;3.70;99.90
26270;DHT22;15937;50.612;6.656;2022-12-07T23:04:09;3.60;99.90
26270;DHT22;15937;50.612;6.656;2022-12-07T23:08:11;3.70;99.90
26270;DHT22;15937;50.612;6.656;2022-12-07T23:12:12;3.70;99.90
26270;DHT22;15937;50.612;6.656;2022-12-07T23:16:33;3.70;99.90
26270;DHT22;15937;50.612;6.656;2022-12-07T23:20:34;3.60;99.90
26270;DHT22;15937;50.612;6.656;2022-12-07T23:24:36;3.70;99.90
26270;DHT22;15937;50.612;6.656;2022-12-07T23:28:38;3.70;99.90
26270;DHT22;15937;50.612;6.656;2022-12-07T23:32:39;3.70;99.90
26270;DHT22;15937;50.612;6.656;2022-12-07T23:36:41;3.70;99.90
26270;DHT22;15937;50.612;6.656;2022-12-07T23:40:43;3.80;99.90
26270;DHT22;15937;50.612;6.656;2022-12-07T23:44:44;3.70;99.90
26270;DHT22;15937;50.612;6.656;2022-12-07T23:48:47;3.70;99.90
26270;DHT22;15937;50.612;6.656;2022-12-07T23:52:48;3.70;99.90
26270;DHT22;15937;50.612;6.656;2022-12-07T23:56:50;3.70;99.90
